Charles A — WDH3586 — position and weather

sailwx.info

Track history (hours):
 
Tides and Currents Weather Stations Pressure Air Temp Water Temp Dewpoint Dewpoint Depression Visibility Wind Speed Wind Dir Waves Ship Positions

Charles A

Owner: TUG CHARLES A, INC., Tampa, FL. More information available from US FCC via Universal Licensing System and Coast Guard Vessel Documentation Center.

Last reported at 2018-Feb-18 18:00 UTC. Time now 2018-Feb-18 18:28 UTC.
Position N 40°41' W 074°05'.

; draft 3 m.

Type: Tow > 200 m length. MMSI: 367608840.

Date/timePositionNaut miles runAvg speedWind from/ knotsBaromVisibWave heightAir tempDewpointWater temp
2018-Feb-18 18:00N 40°41' W 074°05'0 0.0
2018-Feb-18 17:30N 40°41' W 074°05'0 0.0
2018-Feb-18 16:59N 40°41' W 074°05'0 0.0
2018-Feb-18 16:30N 40°41' W 074°05'0 0.0
2018-Feb-18 16:00N 40°41' W 074°05'0 0.1
2018-Feb-18 15:30N 40°41' W 074°05'0 0.0
2018-Feb-18 15:00N 40°41' W 074°05'0 0.0
2018-Feb-18 14:29N 40°41' W 074°05'0 0.0
2018-Feb-18 14:00N 40°41' W 074°05'0 0.0
2018-Feb-18 13:29N 40°41' W 074°05'0 0.0
2018-Feb-18 13:00N 40°41' W 074°05'0 0.0
2018-Feb-18 12:30N 40°41' W 074°05'0 0.0
2018-Feb-18 12:00N 40°41' W 074°05'0 0.0
2018-Feb-18 11:30N 40°41' W 074°05'0 0.0
2018-Feb-18 11:00N 40°41' W 074°05'0 0.0
2018-Feb-18 10:29N 40°41' W 074°05'0 0.0
2018-Feb-18 10:00N 40°41' W 074°05'0 0.0
2018-Feb-18 09:30N 40°41' W 074°05'0 0.0
2018-Feb-18 09:00N 40°41' W 074°05'0 0.0
2018-Feb-18 08:30N 40°41' W 074°05'0 0.0
2018-Feb-18 08:00N 40°41' W 074°05'0 0.0
2018-Feb-18 07:30N 40°41' W 074°05'0 0.0
2018-Feb-18 07:00N 40°41' W 074°05'0 0.0
2018-Feb-18 06:30N 40°41' W 074°05'0 0.0
2018-Feb-18 06:00N 40°41' W 074°05'0 0.0
2018-Feb-18 05:30N 40°41' W 074°05'0 0.0
2018-Feb-18 05:00N 40°41' W 074°05'0 0.0
2018-Feb-18 04:30N 40°41' W 074°05'0 0.0
2018-Feb-18 04:00N 40°41' W 074°05'0 0.0
2018-Feb-18 03:30N 40°41' W 074°05'0 0.0
2018-Feb-18 03:00N 40°41' W 074°05'0 0.0
2018-Feb-18 02:30N 40°41' W 074°05'0 0.0
2018-Feb-18 01:59N 40°41' W 074°05'0 0.7
2018-Feb-18 01:29N 40°40' W 074°04'1 2.7
2018-Feb-18 01:00N 40°39' W 074°03'1 2.4
2018-Feb-18 00:30N 40°38' W 074°03'3 5.0
2018-Feb-18 00:00N 40°36' W 074°02'2 4.6
2018-Feb-17 23:30N 40°33' W 074°02'5 4.2
2018-Feb-17 22:24N 40°29' W 074°03'1 2.6
2018-Feb-17 21:59N 40°28' W 074°01'0 0.2
2018-Feb-17 21:29N 40°28' W 074°01'1 0.7
2018-Feb-17 20:17N 40°28' W 074°01'0 0.7
2018-Feb-17 20:00N 40°28' W 074°01'1 1.4
2018-Feb-17 19:25N 40°28' W 074°01'1 1.0
2018-Feb-17 18:24N 40°27' W 074°01'0 0.0
2018-Feb-16 22:34N 40°28' W 074°01'0 4.4
2018-Feb-16 22:28N 40°28' W 074°01'1 1.6
2018-Feb-16 21:43N 40°29' W 074°00'0 0.1
2018-Feb-16 21:27N 40°29' W 074°00'0 0.0
2018-Feb-16 21:01N 40°29' W 074°00'0 0.0
2018-Feb-16 20:29N 40°29' W 074°00'0 0.0
2018-Feb-16 20:00N 40°29' W 074°00'0 0.0
2018-Feb-16 19:30N 40°29' W 074°00'0 0.0
2018-Feb-16 18:59N 40°29' W 074°00'0 0.0
2018-Feb-16 18:25N 40°29' W 074°00'0 0.0
2018-Feb-16 18:00N 40°29' W 074°00'0 0.2
2018-Feb-16 17:30N 40°29' W 074°00'0 0.1
2018-Feb-16 17:00N 40°29' W 074°00'0 0.1
2018-Feb-16 16:29N 40°29' W 074°00'0 0.0
2018-Feb-16 15:57N 40°29' W 074°00'0 0.0
2018-Feb-16 15:30N 40°29' W 074°00'0 0.0
2018-Feb-16 15:00N 40°29' W 074°00'0 0.0
2018-Feb-16 14:30N 40°29' W 074°00'0 0.0
2018-Feb-16 13:59N 40°29' W 074°00'0 0.0
2018-Feb-16 13:30N 40°29' W 074°00'0 0.0
2018-Feb-16 12:59N 40°29' W 074°00'0 0.0
2018-Feb-16 12:28N 40°29' W 074°00'0 0.0
2018-Feb-16 12:00N 40°29' W 074°00'0 0.0
2018-Feb-16 11:30N 40°29' W 074°00'0 0.0
2018-Feb-16 10:59N 40°29' W 074°00'0 0.0
2018-Feb-16 10:26N 40°29' W 074°00'0 0.0
2018-Feb-16 09:59N 40°29' W 074°00'0 0.0
2018-Feb-16 09:29N 40°29' W 074°00'0 0.0
2018-Feb-16 08:59N 40°29' W 074°00'0 0.0
2018-Feb-16 08:26N 40°29' W 074°00'0 0.0
2018-Feb-16 07:59N 40°29' W 074°00'0 0.0
2018-Feb-16 07:29N 40°29' W 074°00'0 0.1
2018-Feb-16 07:00N 40°29' W 074°00'0 0.2
2018-Feb-16 06:28N 40°29' W 074°00'0 0.0
2018-Feb-16 06:00N 40°29' W 074°00'0 0.0
2018-Feb-16 05:30N 40°29' W 074°00'0 0.0
2018-Feb-16 05:00N 40°29' W 074°00'0 0.0
2018-Feb-16 04:29N 40°29' W 074°00'0 0.1
2018-Feb-16 04:00N 40°29' W 074°00'0 0.3
2018-Feb-16 03:30N 40°29' W 074°00'0 0.1
2018-Feb-16 03:01N 40°29' W 074°00'1 2.9
2018-Feb-16 02:30N 40°27' W 074°01'1 2.9
2018-Feb-16 02:00N 40°29' W 074°01'0 0.4
2018-Feb-16 01:30N 40°29' W 074°00'0 0.0
2018-Feb-16 01:00N 40°29' W 074°00'0 0.0
2018-Feb-16 00:30N 40°29' W 074°00'0 0.1
2018-Feb-16 00:00N 40°29' W 074°00'0 0.4
2018-Feb-15 23:29N 40°29' W 074°01'1 2.4
2018-Feb-15 22:59N 40°28' W 074°01'1 1.9
2018-Feb-15 22:30N 40°29' W 074°01'1 1.7
2018-Feb-15 22:00N 40°29' W 074°00'0 0.0
2018-Feb-15 21:30N 40°29' W 074°00'0 0.0
2018-Feb-15 21:00N 40°29' W 074°00'0 0.0
2018-Feb-15 20:30N 40°29' W 074°00'0 0.0
2018-Feb-15 20:00N 40°29' W 074°00'0 0.0
2018-Feb-15 19:30N 40°29' W 074°00'0 0.0
2018-Feb-15 18:59N 40°29' W 074°00'0 0.0
2018-Feb-15 18:30N 40°29' W 074°00'0 0.1
2018-Feb-15 18:00N 40°29' W 074°00'0 0.0
2018-Feb-15 17:30N 40°29' W 074°00'0 0.1
2018-Feb-15 16:59N 40°29' W 074°00'0 0.2
2018-Feb-15 16:30N 40°29' W 074°00'0 0.0
2018-Feb-15 16:00N 40°29' W 074°00'0 0.0
2018-Feb-15 15:29N 40°29' W 074°00'0 0.0
2018-Feb-15 14:58N 40°29' W 074°00'0 0.1
2018-Feb-15 14:29N 40°29' W 074°00'0 0.3
2018-Feb-15 14:00N 40°29' W 074°00'0 0.6
2018-Feb-15 13:23N 40°29' W 074°01'0 0.5
2018-Feb-15 12:59N 40°29' W 074°00'0 0.0
2018-Feb-15 12:29N 40°29' W 074°00'0 0.0
2018-Feb-15 12:00N 40°29' W 074°00'0 0.0
2018-Feb-15 11:16N 40°29' W 074°00'0 0.0
2018-Feb-15 10:59N 40°29' W 074°00'0 0.0
2018-Feb-15 10:30N 40°29' W 074°00'0 0.0
2018-Feb-15 09:59N 40°29' W 074°00'0 0.0
2018-Feb-15 09:26N 40°29' W 074°00'0 0.1
2018-Feb-15 09:00N 40°29' W 074°00'0 0.1
2018-Feb-15 08:30N 40°29' W 074°00'0 0.0
2018-Feb-15 08:00N 40°29' W 074°00'0 0.0
2018-Feb-15 07:30N 40°29' W 074°00'0 0.0
2018-Feb-15 07:00N 40°29' W 074°00'0 0.0
2018-Feb-15 06:23N 40°29' W 074°00'0 0.0
2018-Feb-15 06:00N 40°29' W 074°00'0 0.0
2018-Feb-15 05:28N 40°29' W 074°00'0 0.0
2018-Feb-15 05:00N 40°29' W 074°00'1 0.5
2018-Feb-15 01:51N 40°28' W 074°01'1 1.5
2018-Feb-15 01:20N 40°28' W 074°01'1 3.4
2018-Feb-15 01:00N 40°29' W 074°00'0 0.2
2018-Feb-15 00:30N 40°29' W 074°00'0 0.0
2018-Feb-15 00:00N 40°29' W 074°00'0 0.0
2018-Feb-14 23:30N 40°29' W 074°00'0 0.0
2018-Feb-14 22:57N 40°29' W 074°00'0 0.1
2018-Feb-14 22:30N 40°29' W 074°00'1 2.7
2018-Feb-14 21:58N 40°28' W 074°01'0 0.1
2018-Feb-14 21:08N 40°28' W 074°01'1 4.8
2018-Feb-14 20:59N 40°28' W 074°01'1 2.2
2018-Feb-14 20:30N 40°29' W 074°00'0 0.1
2018-Feb-14 20:00N 40°29' W 074°00'0 0.0
2018-Feb-14 19:27N 40°29' W 074°00'0 0.0
2018-Feb-14 19:00N 40°29' W 074°00'0 0.0
2018-Feb-14 18:30N 40°29' W 074°00'0 0.0
2018-Feb-14 18:00N 40°29' W 074°00'0 0.0
2018-Feb-14 17:28N 40°29' W 074°00'0 0.0
2018-Feb-14 17:00N 40°29' W 074°00'0 0.0
2018-Feb-14 16:30N 40°29' W 074°00'0 0.0
2018-Feb-14 15:59N 40°29' W 074°00'0 0.0
2018-Feb-14 15:30N 40°29' W 074°00'0 0.0
2018-Feb-14 15:00N 40°29' W 074°00'0 0.0
2018-Feb-14 14:30N 40°29' W 074°00'0 0.0
2018-Feb-14 14:00N 40°29' W 074°00'0 0.0
2018-Feb-14 13:30N 40°29' W 074°00'0 0.1
2018-Feb-14 13:00N 40°29' W 074°00'1 2.5
2018-Feb-14 12:26N 40°28' W 074°01'1 3.0
2018-Feb-14 11:58N 40°29' W 074°00'0 0.0
2018-Feb-14 11:30N 40°29' W 074°00'0 0.0
2018-Feb-14 10:56N 40°29' W 074°00'0 0.0
2018-Feb-14 10:24N 40°29' W 074°00'0 0.0
2018-Feb-14 10:00N 40°29' W 074°00'0 0.3
2018-Feb-14 09:30N 40°29' W 074°00'0 0.0
2018-Feb-14 09:00N 40°29' W 074°00'0 0.2
2018-Feb-14 08:30N 40°29' W 074°00'0 0.2
2018-Feb-14 07:59N 40°29' W 074°00'0 0.1
2018-Feb-14 07:30N 40°29' W 074°00'0 0.0
2018-Feb-14 07:00N 40°29' W 074°00'0 0.0
2018-Feb-14 06:30N 40°29' W 074°00'0 0.0
2018-Feb-14 06:00N 40°29' W 074°00'0 0.0
2018-Feb-14 05:30N 40°29' W 074°00'0 0.0
2018-Feb-14 05:00N 40°29' W 074°00'0 0.0
2018-Feb-14 04:29N 40°29' W 074°00'0 0.1
2018-Feb-14 04:00N 40°29' W 074°00'0 0.0
2018-Feb-14 03:29N 40°29' W 074°00'0 0.0
2018-Feb-14 03:00N 40°29' W 074°00'1 2.9
2018-Feb-14 02:30N 40°27' W 074°01'0 0.1
2018-Feb-14 00:41N 40°28' W 074°01'1 5.7
2018-Feb-14 00:30N 40°29' W 074°01'3 5.7
2018-Feb-14 00:00N 40°31' W 074°02'4 7.9
2018-Feb-13 23:28N 40°36' W 074°03'3 7.7
2018-Feb-13 23:01N 40°39' W 074°04'2 3.6
2018-Feb-13 22:30N 40°39' W 074°07'0 0.0
2018-Feb-13 22:00N 40°39' W 074°07'1 2.4
2018-Feb-13 21:30N 40°39' W 074°08'1 1.5
2018-Feb-13 20:59N 40°38' W 074°09'1 2.1
2018-Feb-13 20:30N 40°39' W 074°09'0 0.7
2018-Feb-13 19:59N 40°40' W 074°08'1 2.6
2018-Feb-13 19:28N 40°38' W 074°09'0 0.1
2018-Feb-13 19:00N 40°38' W 074°09'0 0.1
2018-Feb-13 18:29N 40°38' W 074°09'2 3.3
2018-Feb-13 18:00N 40°40' W 074°08'0 0.1
2018-Feb-13 17:30N 40°40' W 074°08'2 3.1
2018-Feb-13 17:00N 40°38' W 074°09'0 0.2
2018-Feb-13 16:31N 40°38' W 074°09'0 0.0
2018-Feb-13 16:00N 40°38' W 074°09'0 0.0
2018-Feb-13 15:30N 40°38' W 074°09'0 0.2
2018-Feb-13 14:58N 40°38' W 074°09'0 0.2
2018-Feb-13 14:30N 40°38' W 074°09'0 0.2
2018-Feb-13 14:00N 40°38' W 074°09'0 0.0
2018-Feb-13 13:29N 40°38' W 074°09'0 0.0
2018-Feb-13 13:00N 40°38' W 074°09'0 0.0
2018-Feb-13 12:30N 40°38' W 074°09'0 0.0
2018-Feb-13 12:00N 40°38' W 074°09'1 2.8
2018-Feb-13 11:30N 40°39' W 074°11'1 2.1
2018-Feb-13 10:58N 40°38' W 074°12'0 0.0
2018-Feb-13 10:27N 40°38' W 074°12'0 0.0
2018-Feb-13 09:57N 40°38' W 074°12'0 0.0
2018-Feb-13 09:29N 40°38' W 074°12'0 0.0
2018-Feb-13 09:00N 40°38' W 074°12'0 0.0
2018-Feb-13 08:25N 40°38' W 074°12'0 0.0
2018-Feb-13 08:00N 40°38' W 074°12'0 0.0
2018-Feb-13 07:30N 40°38' W 074°12'0 0.0
2018-Feb-13 07:00N 40°38' W 074°12'0 0.0
2018-Feb-13 06:30N 40°38' W 074°12'0 0.0
2018-Feb-13 05:59N 40°38' W 074°12'0 0.0
2018-Feb-13 05:29N 40°38' W 074°12'0 0.0
2018-Feb-13 04:59N 40°38' W 074°12'0 0.0
2018-Feb-13 04:29N 40°38' W 074°12'0 0.0
2018-Feb-13 04:00N 40°38' W 074°12'0 0.0
2018-Feb-13 03:29N 40°38' W 074°12'0 0.0
2018-Feb-13 03:00N 40°38' W 074°12'0 0.0
2018-Feb-13 02:28N 40°38' W 074°12'0 0.0
2018-Feb-13 02:00N 40°38' W 074°12'0 0.0
2018-Feb-13 01:30N 40°38' W 074°12'0 0.0
2018-Feb-13 00:58N 40°38' W 074°12'0 0.0
2018-Feb-13 00:29N 40°38' W 074°12'0 0.0
2018-Feb-12 23:59N 40°38' W 074°12'0 0.0
2018-Feb-12 23:29N 40°38' W 074°12'0 0.0
2018-Feb-12 23:00N 40°38' W 074°12'0 0.0
2018-Feb-12 22:25N 40°38' W 074°12'0 0.0
2018-Feb-12 21:58N 40°38' W 074°12'0 0.0
2018-Feb-12 21:28N 40°38' W 074°12'0 0.0
2018-Feb-12 20:59N 40°38' W 074°12'0 0.0
2018-Feb-12 20:29N 40°38' W 074°12'0 0.0
2018-Feb-12 19:59N 40°38' W 074°12'0 0.0
2018-Feb-12 19:29N 40°38' W 074°12'0 0.0
2018-Feb-12 19:00N 40°38' W 074°12'0 0.0
2018-Feb-12 18:27N 40°38' W 074°12'0 0.0
2018-Feb-12 18:00N 40°38' W 074°12'0 0.0
2018-Feb-12 17:29N 40°38' W 074°12'0 0.0
2018-Feb-12 17:00N 40°38' W 074°12'0 0.0
2018-Feb-12 16:30N 40°38' W 074°12'0 0.0
2018-Feb-12 15:58N 40°38' W 074°12'0 0.0
2018-Feb-12 15:18N 40°38' W 074°12'0 0.0
2018-Feb-12 14:58N 40°38' W 074°12'0 0.0
2018-Feb-12 14:29N 40°38' W 074°12'0 0.0
2018-Feb-12 14:00N 40°38' W 074°12'0 0.0
2018-Feb-12 13:30N 40°38' W 074°12'0 0.0
2018-Feb-12 13:01N 40°38' W 074°12'0 0.0
2018-Feb-12 12:29N 40°38' W 074°12'0 0.0
2018-Feb-12 11:30N 40°38' W 074°12'0 0.0
2018-Feb-12 11:00N 40°38' W 074°12'0 0.0
2018-Feb-12 10:30N 40°38' W 074°12'0 0.0
2018-Feb-12 10:00N 40°38' W 074°12'0 0.0
2018-Feb-12 09:31N 40°38' W 074°12'0 0.0
2018-Feb-12 09:00N 40°38' W 074°12'0 0.0
2018-Feb-12 08:30N 40°38' W 074°12'0 0.0
2018-Feb-12 08:00N 40°38' W 074°12'0 0.0
2018-Feb-12 07:29N 40°38' W 074°12'0 0.0
2018-Feb-12 06:59N 40°38' W 074°12'0 0.0
2018-Feb-12 06:30N 40°38' W 074°12'0 0.0
2018-Feb-12 06:01N 40°38' W 074°12'0 0.0
2018-Feb-12 05:30N 40°38' W 074°12'0 0.0
2018-Feb-12 04:59N 40°38' W 074°12'0 0.0
2018-Feb-12 04:30N 40°38' W 074°12'0 0.0
2018-Feb-12 04:00N 40°38' W 074°12'0 0.0
2018-Feb-12 03:29N 40°38' W 074°12'0 0.0
2018-Feb-12 03:00N 40°38' W 074°12'0 0.0
2018-Feb-12 02:30N 40°38' W 074°12'0 0.0
2018-Feb-12 02:01N 40°38' W 074°12'0 0.0
2018-Feb-12 01:30N 40°38' W 074°12'0 0.0
2018-Feb-12 00:59N 40°38' W 074°12'0 0.0
2018-Feb-12 00:30N 40°38' W 074°12'0 0.0
2018-Feb-11 23:59N 40°38' W 074°12'0 0.0
2018-Feb-11 23:30N 40°38' W 074°12'0 0.0
2018-Feb-11 23:00N 40°38' W 074°12'0 0.0
2018-Feb-11 22:31N 40°38' W 074°12'0 0.0
2018-Feb-11 21:58N 40°38' W 074°12'0 0.0
2018-Feb-11 21:28N 40°38' W 074°12'0 0.0
2018-Feb-11 19:40N 40°38' W 074°12'0 0.0
2018-Feb-11 19:21N 40°38' W 074°12'0 0.0
2018-Feb-11 19:00N 40°38' W 074°12'0 0.0
2018-Feb-11 18:29N 40°38' W 074°12'0 0.0
2018-Feb-11 17:57N 40°38' W 074°12'0 0.0
2018-Feb-11 17:29N 40°38' W 074°12'0 0.0
2018-Feb-11 17:00N 40°38' W 074°12'0 0.0
2018-Feb-11 16:30N 40°38' W 074°12'0 0.0
2018-Feb-11 16:00N 40°38' W 074°12'0 0.0
2018-Feb-11 15:30N 40°38' W 074°12'0 0.0
2018-Feb-11 15:00N 40°38' W 074°12'0 0.0
2018-Feb-11 14:30N 40°38' W 074°12'0 0.0
2018-Feb-11 14:00N 40°38' W 074°12'0 0.0
2018-Feb-11 13:30N 40°38' W 074°12'0 0.0
2018-Feb-11 13:00N 40°38' W 074°12'0 0.0
2018-Feb-11 12:30N 40°38' W 074°12'0 0.0
2018-Feb-11 12:00N 40°38' W 074°12'0 0.0
2018-Feb-11 11:29N 40°38' W 074°12'0 0.0
2018-Feb-11 11:00N 40°38' W 074°12'0 0.0
2018-Feb-11 10:30N 40°38' W 074°12'0 0.0
2018-Feb-11 10:00N 40°38' W 074°12'0 0.0
2018-Feb-11 09:30N 40°38' W 074°12'0 0.0
2018-Feb-11 08:57N 40°38' W 074°12'0 0.0
2018-Feb-11 08:30N 40°38' W 074°12'0 0.0
2018-Feb-11 07:59N 40°38' W 074°12'0 0.0
2018-Feb-11 07:28N 40°38' W 074°12'0 0.0
2018-Feb-11 07:00N 40°38' W 074°12'0 0.0
2018-Feb-11 06:29N 40°38' W 074°12'0 0.0
2018-Feb-11 06:00N 40°38' W 074°12'0 0.0
2018-Feb-11 05:30N 40°38' W 074°12'1 1.7
2018-Feb-11 05:00N 40°39' W 074°11'3 6.2
2018-Feb-11 04:30N 40°39' W 074°07'0 0.2
2018-Feb-11 04:00N 40°39' W 074°07'0 0.0
2018-Feb-11 03:29N 40°39' W 074°07'0 0.0
2018-Feb-11 03:00N 40°39' W 074°07'0 0.0
2018-Feb-11 02:30N 40°39' W 074°07'0 0.0
2018-Feb-11 02:00N 40°39' W 074°07'0 0.0
2018-Feb-11 01:30N 40°39' W 074°07'0 0.0
2018-Feb-11 01:00N 40°39' W 074°07'0 0.0
2018-Feb-11 00:30N 40°39' W 074°07'0 0.0
2018-Feb-11 00:00N 40°39' W 074°07'0 0.0
2018-Feb-10 23:30N 40°39' W 074°07'0 0.0
2018-Feb-10 23:00N 40°39' W 074°07'0 0.0
2018-Feb-10 22:29N 40°39' W 074°07'0 0.0
2018-Feb-10 22:00N 40°39' W 074°07'0 0.0
2018-Feb-10 21:29N 40°39' W 074°07'0 0.0
2018-Feb-10 20:58N 40°39' W 074°07'0 0.0
2018-Feb-10 20:30N 40°39' W 074°07'0 0.0
2018-Feb-10 20:00N 40°39' W 074°07'0 0.0
2018-Feb-10 19:31N 40°39' W 074°07'0 0.0
2018-Feb-10 19:00N 40°39' W 074°07'0 0.0
2018-Feb-10 18:28N 40°39' W 074°07'0 0.0
2018-Feb-10 17:59N 40°39' W 074°07'0 0.0
2018-Feb-10 17:31N 40°39' W 074°07'0 0.0
2018-Feb-10 17:00N 40°39' W 074°07'0 0.0
2018-Feb-10 16:29N 40°39' W 074°07'0 0.0
2018-Feb-10 16:00N 40°39' W 074°07'0 0.0
2018-Feb-10 15:30N 40°39' W 074°07'0 0.1
2018-Feb-10 15:00N 40°39' W 074°07'0 0.0
2018-Feb-10 14:27N 40°39' W 074°07'0 0.0
2018-Feb-10 13:21N 40°39' W 074°07'0 0.1
2018-Feb-10 13:00N 40°39' W 074°07'0 0.0
2018-Feb-10 12:30N 40°39' W 074°07'0 0.1
2018-Feb-10 12:00N 40°39' W 074°07'4 7.5
2018-Feb-10 11:30N 40°38' W 074°12'0 0.1
2018-Feb-10 11:00N 40°38' W 074°12'0 0.0
2018-Feb-10 10:30N 40°38' W 074°12'0 0.0
2018-Feb-10 10:01N 40°38' W 074°12'0 0.0
2018-Feb-10 09:29N 40°38' W 074°12'0 0.0
2018-Feb-10 09:00N 40°38' W 074°12'0 0.0
2018-Feb-10 08:28N 40°38' W 074°12'0 0.0
2018-Feb-10 08:00N 40°38' W 074°12'0 0.0
2018-Feb-10 07:30N 40°38' W 074°12'0 0.0
2018-Feb-10 06:59N 40°38' W 074°12'0 0.0
2018-Feb-10 06:30N 40°38' W 074°12'0 0.0
2018-Feb-10 06:00N 40°38' W 074°12'0 0.0
2018-Feb-10 05:29N 40°38' W 074°12'0 0.0
2018-Feb-10 05:00N 40°38' W 074°12'0 0.0
2018-Feb-10 04:31N 40°38' W 074°12'0 0.0
2018-Feb-10 03:58N 40°38' W 074°12'1 1.1
2018-Feb-10 03:30N 40°38' W 074°12'3 6.3
2018-Feb-10 03:00N 40°39' W 074°07'3 6.8
2018-Feb-10 02:31N 40°38' W 074°03'4 7.3
2018-Feb-10 02:00N 40°34' W 074°02'4 7.2
2018-Feb-10 01:29N 40°31' W 073°59'  
Track history (hours):
 
Tides and Currents Weather Stations Pressure Air Temp Water Temp Dewpoint Dewpoint Depression Visibility Wind Speed Wind Dir Waves Ship Positions

Charles A

Owner: TUG CHARLES A, INC., Tampa, FL. More information available from US FCC via Universal Licensing System and Coast Guard Vessel Documentation Center.

Last reported at 2018-Feb-18 18:00 UTC. Time now 2018-Feb-18 18:28 UTC.
Position N 40°41' W 074°05'.

; draft 3 m.

Type: Tow > 200 m length. MMSI: 367608840.

Date/timePositionNaut miles runAvg speedWind from/ knotsBaromVisibWave heightAir tempDewpointWater temp
2018-Feb-18 18:00N 40°41' W 074°05'0 0.0
2018-Feb-18 17:30N 40°41' W 074°05'0 0.0
2018-Feb-18 16:59N 40°41' W 074°05'0 0.0
2018-Feb-18 16:30N 40°41' W 074°05'0 0.0
2018-Feb-18 16:00N 40°41' W 074°05'0 0.1
2018-Feb-18 15:30N 40°41' W 074°05'0 0.0
2018-Feb-18 15:00N 40°41' W 074°05'0 0.0
2018-Feb-18 14:29N 40°41' W 074°05'0 0.0
2018-Feb-18 14:00N 40°41' W 074°05'0 0.0
2018-Feb-18 13:29N 40°41' W 074°05'0 0.0
2018-Feb-18 13:00N 40°41' W 074°05'0 0.0
2018-Feb-18 12:30N 40°41' W 074°05'0 0.0
2018-Feb-18 12:00N 40°41' W 074°05'0 0.0
2018-Feb-18 11:30N 40°41' W 074°05'0 0.0
2018-Feb-18 11:00N 40°41' W 074°05'0 0.0
2018-Feb-18 10:29N 40°41' W 074°05'0 0.0
2018-Feb-18 10:00N 40°41' W 074°05'0 0.0
2018-Feb-18 09:30N 40°41' W 074°05'0 0.0
2018-Feb-18 09:00N 40°41' W 074°05'0 0.0
2018-Feb-18 08:30N 40°41' W 074°05'0 0.0
2018-Feb-18 08:00N 40°41' W 074°05'0 0.0
2018-Feb-18 07:30N 40°41' W 074°05'0 0.0
2018-Feb-18 07:00N 40°41' W 074°05'0 0.0
2018-Feb-18 06:30N 40°41' W 074°05'0 0.0
2018-Feb-18 06:00N 40°41' W 074°05'0 0.0
2018-Feb-18 05:30N 40°41' W 074°05'0 0.0
2018-Feb-18 05:00N 40°41' W 074°05'0 0.0
2018-Feb-18 04:30N 40°41' W 074°05'0 0.0
2018-Feb-18 04:00N 40°41' W 074°05'0 0.0
2018-Feb-18 03:30N 40°41' W 074°05'0 0.0
2018-Feb-18 03:00N 40°41' W 074°05'0 0.0
2018-Feb-18 02:30N 40°41' W 074°05'0 0.0
2018-Feb-18 01:59N 40°41' W 074°05'0 0.7
2018-Feb-18 01:29N 40°40' W 074°04'1 2.7
2018-Feb-18 01:00N 40°39' W 074°03'1 2.4
2018-Feb-18 00:30N 40°38' W 074°03'3 5.0
2018-Feb-18 00:00N 40°36' W 074°02'2 4.6
2018-Feb-17 23:30N 40°33' W 074°02'5 4.2
2018-Feb-17 22:24N 40°29' W 074°03'1 2.6
2018-Feb-17 21:59N 40°28' W 074°01'0 0.2
2018-Feb-17 21:29N 40°28' W 074°01'1 0.7
2018-Feb-17 20:17N 40°28' W 074°01'0 0.7
2018-Feb-17 20:00N 40°28' W 074°01'1 1.4
2018-Feb-17 19:25N 40°28' W 074°01'1 1.0
2018-Feb-17 18:24N 40°27' W 074°01'0 0.0
2018-Feb-16 22:34N 40°28' W 074°01'0 4.4
2018-Feb-16 22:28N 40°28' W 074°01'1 1.6
2018-Feb-16 21:43N 40°29' W 074°00'0 0.1
2018-Feb-16 21:27N 40°29' W 074°00'0 0.0
2018-Feb-16 21:01N 40°29' W 074°00'0 0.0
2018-Feb-16 20:29N 40°29' W 074°00'0 0.0
2018-Feb-16 20:00N 40°29' W 074°00'0 0.0
2018-Feb-16 19:30N 40°29' W 074°00'0 0.0
2018-Feb-16 18:59N 40°29' W 074°00'0 0.0
2018-Feb-16 18:25N 40°29' W 074°00'0 0.0
2018-Feb-16 18:00N 40°29' W 074°00'0 0.2
2018-Feb-16 17:30N 40°29' W 074°00'0 0.1
2018-Feb-16 17:00N 40°29' W 074°00'0 0.1
2018-Feb-16 16:29N 40°29' W 074°00'0 0.0
2018-Feb-16 15:57N 40°29' W 074°00'0 0.0
2018-Feb-16 15:30N 40°29' W 074°00'0 0.0
2018-Feb-16 15:00N 40°29' W 074°00'0 0.0
2018-Feb-16 14:30N 40°29' W 074°00'0 0.0
2018-Feb-16 13:59N 40°29' W 074°00'0 0.0
2018-Feb-16 13:30N 40°29' W 074°00'0 0.0
2018-Feb-16 12:59N 40°29' W 074°00'0 0.0
2018-Feb-16 12:28N 40°29' W 074°00'0 0.0
2018-Feb-16 12:00N 40°29' W 074°00'0 0.0
2018-Feb-16 11:30N 40°29' W 074°00'0 0.0
2018-Feb-16 10:59N 40°29' W 074°00'0 0.0
2018-Feb-16 10:26N 40°29' W 074°00'0 0.0
2018-Feb-16 09:59N 40°29' W 074°00'0 0.0
2018-Feb-16 09:29N 40°29' W 074°00'0 0.0
2018-Feb-16 08:59N 40°29' W 074°00'0 0.0
2018-Feb-16 08:26N 40°29' W 074°00'0 0.0
2018-Feb-16 07:59N 40°29' W 074°00'0 0.0
2018-Feb-16 07:29N 40°29' W 074°00'0 0.1
2018-Feb-16 07:00N 40°29' W 074°00'0 0.2
2018-Feb-16 06:28N 40°29' W 074°00'0 0.0
2018-Feb-16 06:00N 40°29' W 074°00'0 0.0
2018-Feb-16 05:30N 40°29' W 074°00'0 0.0
2018-Feb-16 05:00N 40°29' W 074°00'0 0.0
2018-Feb-16 04:29N 40°29' W 074°00'0 0.1
2018-Feb-16 04:00N 40°29' W 074°00'0 0.3
2018-Feb-16 03:30N 40°29' W 074°00'0 0.1
2018-Feb-16 03:01N 40°29' W 074°00'1 2.9
2018-Feb-16 02:30N 40°27' W 074°01'1 2.9
2018-Feb-16 02:00N 40°29' W 074°01'0 0.4
2018-Feb-16 01:30N 40°29' W 074°00'0 0.0
2018-Feb-16 01:00N 40°29' W 074°00'0 0.0
2018-Feb-16 00:30N 40°29' W 074°00'0 0.1
2018-Feb-16 00:00N 40°29' W 074°00'0 0.4
2018-Feb-15 23:29N 40°29' W 074°01'1 2.4
2018-Feb-15 22:59N 40°28' W 074°01'1 1.9
2018-Feb-15 22:30N 40°29' W 074°01'1 1.7
2018-Feb-15 22:00N 40°29' W 074°00'0 0.0
2018-Feb-15 21:30N 40°29' W 074°00'0 0.0
2018-Feb-15 21:00N 40°29' W 074°00'0 0.0
2018-Feb-15 20:30N 40°29' W 074°00'0 0.0
2018-Feb-15 20:00N 40°29' W 074°00'0 0.0
2018-Feb-15 19:30N 40°29' W 074°00'0 0.0
2018-Feb-15 18:59N 40°29' W 074°00'0 0.0
2018-Feb-15 18:30N 40°29' W 074°00'0 0.1
2018-Feb-15 18:00N 40°29' W 074°00'0 0.0
2018-Feb-15 17:30N 40°29' W 074°00'0 0.1
2018-Feb-15 16:59N 40°29' W 074°00'0 0.2
2018-Feb-15 16:30N 40°29' W 074°00'0 0.0
2018-Feb-15 16:00N 40°29' W 074°00'0 0.0
2018-Feb-15 15:29N 40°29' W 074°00'0 0.0
2018-Feb-15 14:58N 40°29' W 074°00'0 0.1
2018-Feb-15 14:29N 40°29' W 074°00'0 0.3
2018-Feb-15 14:00N 40°29' W 074°00'0 0.6
2018-Feb-15 13:23N 40°29' W 074°01'0 0.5
2018-Feb-15 12:59N 40°29' W 074°00'0 0.0
2018-Feb-15 12:29N 40°29' W 074°00'0 0.0
2018-Feb-15 12:00N 40°29' W 074°00'0 0.0
2018-Feb-15 11:16N 40°29' W 074°00'0 0.0
2018-Feb-15 10:59N 40°29' W 074°00'0 0.0
2018-Feb-15 10:30N 40°29' W 074°00'0 0.0
2018-Feb-15 09:59N 40°29' W 074°00'0 0.0
2018-Feb-15 09:26N 40°29' W 074°00'0 0.1
2018-Feb-15 09:00N 40°29' W 074°00'0 0.1
2018-Feb-15 08:30N 40°29' W 074°00'0 0.0
2018-Feb-15 08:00N 40°29' W 074°00'0 0.0
2018-Feb-15 07:30N 40°29' W 074°00'0 0.0
2018-Feb-15 07:00N 40°29' W 074°00'0 0.0
2018-Feb-15 06:23N 40°29' W 074°00'0 0.0
2018-Feb-15 06:00N 40°29' W 074°00'0 0.0
2018-Feb-15 05:28N 40°29' W 074°00'0 0.0
2018-Feb-15 05:00N 40°29' W 074°00'1 0.5
2018-Feb-15 01:51N 40°28' W 074°01'1 1.5
2018-Feb-15 01:20N 40°28' W 074°01'1 3.4
2018-Feb-15 01:00N 40°29' W 074°00'0 0.2
2018-Feb-15 00:30N 40°29' W 074°00'0 0.0
2018-Feb-15 00:00N 40°29' W 074°00'0 0.0
2018-Feb-14 23:30N 40°29' W 074°00'0 0.0
2018-Feb-14 22:57N 40°29' W 074°00'0 0.1
2018-Feb-14 22:30N 40°29' W 074°00'1 2.7
2018-Feb-14 21:58N 40°28' W 074°01'0 0.1
2018-Feb-14 21:08N 40°28' W 074°01'1 4.8
2018-Feb-14 20:59N 40°28' W 074°01'1 2.2
2018-Feb-14 20:30N 40°29' W 074°00'0 0.1
2018-Feb-14 20:00N 40°29' W 074°00'0 0.0
2018-Feb-14 19:27N 40°29' W 074°00'0 0.0
2018-Feb-14 19:00N 40°29' W 074°00'0 0.0
2018-Feb-14 18:30N 40°29' W 074°00'0 0.0
2018-Feb-14 18:00N 40°29' W 074°00'0 0.0
2018-Feb-14 17:28N 40°29' W 074°00'0 0.0
2018-Feb-14 17:00N 40°29' W 074°00'0 0.0
2018-Feb-14 16:30N 40°29' W 074°00'0 0.0
2018-Feb-14 15:59N 40°29' W 074°00'0 0.0
2018-Feb-14 15:30N 40°29' W 074°00'0 0.0
2018-Feb-14 15:00N 40°29' W 074°00'0 0.0
2018-Feb-14 14:30N 40°29' W 074°00'0 0.0
2018-Feb-14 14:00N 40°29' W 074°00'0 0.0
2018-Feb-14 13:30N 40°29' W 074°00'0 0.1
2018-Feb-14 13:00N 40°29' W 074°00'1 2.5
2018-Feb-14 12:26N 40°28' W 074°01'1 3.0
2018-Feb-14 11:58N 40°29' W 074°00'0 0.0
2018-Feb-14 11:30N 40°29' W 074°00'0 0.0
2018-Feb-14 10:56N 40°29' W 074°00'0 0.0
2018-Feb-14 10:24N 40°29' W 074°00'0 0.0
2018-Feb-14 10:00N 40°29' W 074°00'0 0.3
2018-Feb-14 09:30N 40°29' W 074°00'0 0.0
2018-Feb-14 09:00N 40°29' W 074°00'0 0.2
2018-Feb-14 08:30N 40°29' W 074°00'0 0.2
2018-Feb-14 07:59N 40°29' W 074°00'0 0.1
2018-Feb-14 07:30N 40°29' W 074°00'0 0.0
2018-Feb-14 07:00N 40°29' W 074°00'0 0.0
2018-Feb-14 06:30N 40°29' W 074°00'0 0.0
2018-Feb-14 06:00N 40°29' W 074°00'0 0.0
2018-Feb-14 05:30N 40°29' W 074°00'0 0.0
2018-Feb-14 05:00N 40°29' W 074°00'0 0.0
2018-Feb-14 04:29N 40°29' W 074°00'0 0.1
2018-Feb-14 04:00N 40°29' W 074°00'0 0.0
2018-Feb-14 03:29N 40°29' W 074°00'0 0.0
2018-Feb-14 03:00N 40°29' W 074°00'1 2.9
2018-Feb-14 02:30N 40°27' W 074°01'0 0.1
2018-Feb-14 00:41N 40°28' W 074°01'1 5.7
2018-Feb-14 00:30N 40°29' W 074°01'3 5.7
2018-Feb-14 00:00N 40°31' W 074°02'4 7.9
2018-Feb-13 23:28N 40°36' W 074°03'3 7.7
2018-Feb-13 23:01N 40°39' W 074°04'2 3.6
2018-Feb-13 22:30N 40°39' W 074°07'0 0.0
2018-Feb-13 22:00N 40°39' W 074°07'1 2.4
2018-Feb-13 21:30N 40°39' W 074°08'1 1.5
2018-Feb-13 20:59N 40°38' W 074°09'1 2.1
2018-Feb-13 20:30N 40°39' W 074°09'0 0.7
2018-Feb-13 19:59N 40°40' W 074°08'1 2.6
2018-Feb-13 19:28N 40°38' W 074°09'0 0.1
2018-Feb-13 19:00N 40°38' W 074°09'0 0.1
2018-Feb-13 18:29N 40°38' W 074°09'2 3.3
2018-Feb-13 18:00N 40°40' W 074°08'0 0.1
2018-Feb-13 17:30N 40°40' W 074°08'2 3.1
2018-Feb-13 17:00N 40°38' W 074°09'0 0.2
2018-Feb-13 16:31N 40°38' W 074°09'0 0.0
2018-Feb-13 16:00N 40°38' W 074°09'0 0.0
2018-Feb-13 15:30N 40°38' W 074°09'0 0.2
2018-Feb-13 14:58N 40°38' W 074°09'0 0.2
2018-Feb-13 14:30N 40°38' W 074°09'0 0.2
2018-Feb-13 14:00N 40°38' W 074°09'0 0.0
2018-Feb-13 13:29N 40°38' W 074°09'0 0.0
2018-Feb-13 13:00N 40°38' W 074°09'0 0.0
2018-Feb-13 12:30N 40°38' W 074°09'0 0.0
2018-Feb-13 12:00N 40°38' W 074°09'1 2.8
2018-Feb-13 11:30N 40°39' W 074°11'1 2.1
2018-Feb-13 10:58N 40°38' W 074°12'0 0.0
2018-Feb-13 10:27N 40°38' W 074°12'0 0.0
2018-Feb-13 09:57N 40°38' W 074°12'0 0.0
2018-Feb-13 09:29N 40°38' W 074°12'0 0.0
2018-Feb-13 09:00N 40°38' W 074°12'0 0.0
2018-Feb-13 08:25N 40°38' W 074°12'0 0.0
2018-Feb-13 08:00N 40°38' W 074°12'0 0.0
2018-Feb-13 07:30N 40°38' W 074°12'0 0.0
2018-Feb-13 07:00N 40°38' W 074°12'0 0.0
2018-Feb-13 06:30N 40°38' W 074°12'0 0.0
2018-Feb-13 05:59N 40°38' W 074°12'0 0.0
2018-Feb-13 05:29N 40°38' W 074°12'0 0.0
2018-Feb-13 04:59N 40°38' W 074°12'0 0.0
2018-Feb-13 04:29N 40°38' W 074°12'0 0.0
2018-Feb-13 04:00N 40°38' W 074°12'0 0.0
2018-Feb-13 03:29N 40°38' W 074°12'0 0.0
2018-Feb-13 03:00N 40°38' W 074°12'0 0.0
2018-Feb-13 02:28N 40°38' W 074°12'0 0.0
2018-Feb-13 02:00N 40°38' W 074°12'0 0.0
2018-Feb-13 01:30N 40°38' W 074°12'0 0.0
2018-Feb-13 00:58N 40°38' W 074°12'0 0.0
2018-Feb-13 00:29N 40°38' W 074°12'0 0.0
2018-Feb-12 23:59N 40°38' W 074°12'0 0.0
2018-Feb-12 23:29N 40°38' W 074°12'0 0.0
2018-Feb-12 23:00N 40°38' W 074°12'0 0.0
2018-Feb-12 22:25N 40°38' W 074°12'0 0.0
2018-Feb-12 21:58N 40°38' W 074°12'0 0.0
2018-Feb-12 21:28N 40°38' W 074°12'0 0.0
2018-Feb-12 20:59N 40°38' W 074°12'0 0.0
2018-Feb-12 20:29N 40°38' W 074°12'0 0.0
2018-Feb-12 19:59N 40°38' W 074°12'0 0.0
2018-Feb-12 19:29N 40°38' W 074°12'0 0.0
2018-Feb-12 19:00N 40°38' W 074°12'0 0.0
2018-Feb-12 18:27N 40°38' W 074°12'0 0.0
2018-Feb-12 18:00N 40°38' W 074°12'0 0.0
2018-Feb-12 17:29N 40°38' W 074°12'0 0.0
2018-Feb-12 17:00N 40°38' W 074°12'0 0.0
2018-Feb-12 16:30N 40°38' W 074°12'0 0.0
2018-Feb-12 15:58N 40°38' W 074°12'0 0.0
2018-Feb-12 15:18N 40°38' W 074°12'0 0.0
2018-Feb-12 14:58N 40°38' W 074°12'0 0.0
2018-Feb-12 14:29N 40°38' W 074°12'0 0.0
2018-Feb-12 14:00N 40°38' W 074°12'0 0.0
2018-Feb-12 13:30N 40°38' W 074°12'0 0.0
2018-Feb-12 13:01N 40°38' W 074°12'0 0.0
2018-Feb-12 12:29N 40°38' W 074°12'0 0.0
2018-Feb-12 11:30N 40°38' W 074°12'0 0.0
2018-Feb-12 11:00N 40°38' W 074°12'0 0.0
2018-Feb-12 10:30N 40°38' W 074°12'0 0.0
2018-Feb-12 10:00N 40°38' W 074°12'0 0.0
2018-Feb-12 09:31N 40°38' W 074°12'0 0.0
2018-Feb-12 09:00N 40°38' W 074°12'0 0.0
2018-Feb-12 08:30N 40°38' W 074°12'0 0.0
2018-Feb-12 08:00N 40°38' W 074°12'0 0.0
2018-Feb-12 07:29N 40°38' W 074°12'0 0.0
2018-Feb-12 06:59N 40°38' W 074°12'0 0.0
2018-Feb-12 06:30N 40°38' W 074°12'0 0.0
2018-Feb-12 06:01N 40°38' W 074°12'0 0.0
2018-Feb-12 05:30N 40°38' W 074°12'0 0.0
2018-Feb-12 04:59N 40°38' W 074°12'0 0.0
2018-Feb-12 04:30N 40°38' W 074°12'0 0.0
2018-Feb-12 04:00N 40°38' W 074°12'0 0.0
2018-Feb-12 03:29N 40°38' W 074°12'0 0.0
2018-Feb-12 03:00N 40°38' W 074°12'0 0.0
2018-Feb-12 02:30N 40°38' W 074°12'0 0.0
2018-Feb-12 02:01N 40°38' W 074°12'0 0.0
2018-Feb-12 01:30N 40°38' W 074°12'0 0.0
2018-Feb-12 00:59N 40°38' W 074°12'0 0.0
2018-Feb-12 00:30N 40°38' W 074°12'0 0.0
2018-Feb-11 23:59N 40°38' W 074°12'0 0.0
2018-Feb-11 23:30N 40°38' W 074°12'0 0.0
2018-Feb-11 23:00N 40°38' W 074°12'0 0.0
2018-Feb-11 22:31N 40°38' W 074°12'0 0.0
2018-Feb-11 21:58N 40°38' W 074°12'0 0.0
2018-Feb-11 21:28N 40°38' W 074°12'0 0.0
2018-Feb-11 19:40N 40°38' W 074°12'0 0.0
2018-Feb-11 19:21N 40°38' W 074°12'0 0.0
2018-Feb-11 19:00N 40°38' W 074°12'0 0.0
2018-Feb-11 18:29N 40°38' W 074°12'0 0.0
2018-Feb-11 17:57N 40°38' W 074°12'0 0.0
2018-Feb-11 17:29N 40°38' W 074°12'0 0.0
2018-Feb-11 17:00N 40°38' W 074°12'0 0.0
2018-Feb-11 16:30N 40°38' W 074°12'0 0.0
2018-Feb-11 16:00N 40°38' W 074°12'0 0.0
2018-Feb-11 15:30N 40°38' W 074°12'0 0.0
2018-Feb-11 15:00N 40°38' W 074°12'0 0.0
2018-Feb-11 14:30N 40°38' W 074°12'0 0.0
2018-Feb-11 14:00N 40°38' W 074°12'0 0.0
2018-Feb-11 13:30N 40°38' W 074°12'0 0.0
2018-Feb-11 13:00N 40°38' W 074°12'0 0.0
2018-Feb-11 12:30N 40°38' W 074°12'0 0.0
2018-Feb-11 12:00N 40°38' W 074°12'0 0.0
2018-Feb-11 11:29N 40°38' W 074°12'0 0.0
2018-Feb-11 11:00N 40°38' W 074°12'0 0.0
2018-Feb-11 10:30N 40°38' W 074°12'0 0.0
2018-Feb-11 10:00N 40°38' W 074°12'0 0.0
2018-Feb-11 09:30N 40°38' W 074°12'0 0.0
2018-Feb-11 08:57N 40°38' W 074°12'0 0.0
2018-Feb-11 08:30N 40°38' W 074°12'0 0.0
2018-Feb-11 07:59N 40°38' W 074°12'0 0.0
2018-Feb-11 07:28N 40°38' W 074°12'0 0.0
2018-Feb-11 07:00N 40°38' W 074°12'0 0.0
2018-Feb-11 06:29N 40°38' W 074°12'0 0.0
2018-Feb-11 06:00N 40°38' W 074°12'0 0.0
2018-Feb-11 05:30N 40°38' W 074°12'1 1.7
2018-Feb-11 05:00N 40°39' W 074°11'3 6.2
2018-Feb-11 04:30N 40°39' W 074°07'0 0.2
2018-Feb-11 04:00N 40°39' W 074°07'0 0.0
2018-Feb-11 03:29N 40°39' W 074°07'0 0.0
2018-Feb-11 03:00N 40°39' W 074°07'0 0.0
2018-Feb-11 02:30N 40°39' W 074°07'0 0.0
2018-Feb-11 02:00N 40°39' W 074°07'0 0.0
2018-Feb-11 01:30N 40°39' W 074°07'0 0.0
2018-Feb-11 01:00N 40°39' W 074°07'0 0.0
2018-Feb-11 00:30N 40°39' W 074°07'0 0.0
2018-Feb-11 00:00N 40°39' W 074°07'0 0.0
2018-Feb-10 23:30N 40°39' W 074°07'0 0.0
2018-Feb-10 23:00N 40°39' W 074°07'0 0.0
2018-Feb-10 22:29N 40°39' W 074°07'0 0.0
2018-Feb-10 22:00N 40°39' W 074°07'0 0.0
2018-Feb-10 21:29N 40°39' W 074°07'0 0.0
2018-Feb-10 20:58N 40°39' W 074°07'0 0.0
2018-Feb-10 20:30N 40°39' W 074°07'0 0.0
2018-Feb-10 20:00N 40°39' W 074°07'0 0.0
2018-Feb-10 19:31N 40°39' W 074°07'0 0.0
2018-Feb-10 19:00N 40°39' W 074°07'0 0.0
2018-Feb-10 18:28N 40°39' W 074°07'0 0.0
2018-Feb-10 17:59N 40°39' W 074°07'0 0.0
2018-Feb-10 17:31N 40°39' W 074°07'0 0.0
2018-Feb-10 17:00N 40°39' W 074°07'0 0.0
2018-Feb-10 16:29N 40°39' W 074°07'0 0.0
2018-Feb-10 16:00N 40°39' W 074°07'0 0.0
2018-Feb-10 15:30N 40°39' W 074°07'0 0.1
2018-Feb-10 15:00N 40°39' W 074°07'0 0.0
2018-Feb-10 14:27N 40°39' W 074°07'0 0.0
2018-Feb-10 13:21N 40°39' W 074°07'0 0.1
2018-Feb-10 13:00N 40°39' W 074°07'0 0.0
2018-Feb-10 12:30N 40°39' W 074°07'0 0.1
2018-Feb-10 12:00N 40°39' W 074°07'4 7.5
2018-Feb-10 11:30N 40°38' W 074°12'0 0.1
2018-Feb-10 11:00N 40°38' W 074°12'0 0.0
2018-Feb-10 10:30N 40°38' W 074°12'0 0.0
2018-Feb-10 10:01N 40°38' W 074°12'0 0.0
2018-Feb-10 09:29N 40°38' W 074°12'0 0.0
2018-Feb-10 09:00N 40°38' W 074°12'0 0.0
2018-Feb-10 08:28N 40°38' W 074°12'0 0.0
2018-Feb-10 08:00N 40°38' W 074°12'0 0.0
2018-Feb-10 07:30N 40°38' W 074°12'0 0.0
2018-Feb-10 06:59N 40°38' W 074°12'0 0.0
2018-Feb-10 06:30N 40°38' W 074°12'0 0.0
2018-Feb-10 06:00N 40°38' W 074°12'0 0.0
2018-Feb-10 05:29N 40°38' W 074°12'0 0.0
2018-Feb-10 05:00N 40°38' W 074°12'0 0.0
2018-Feb-10 04:31N 40°38' W 074°12'0 0.0
2018-Feb-10 03:58N 40°38' W 074°12'1 1.1
2018-Feb-10 03:30N 40°38' W 074°12'3 6.3
2018-Feb-10 03:00N 40°39' W 074°07'3 6.8
2018-Feb-10 02:31N 40°38' W 074°03'4 7.3
2018-Feb-10 02:00N 40°34' W 074°02'4 7.2
2018-Feb-10 01:29N 40°31' W 073°59'  

Dump ship's entire track history